Grover Beach, CA (93433)

20:57 PST le 09 décembre 2016 (GMT -0800)
Grover Heights | | Change Station

Alt. 112 ft 35.13 °N, 120.62 °W | Updated 26 seconds ago

Couvert
Couvert
57.3 ° F
Paraît 57.3 ° F
N
0.0
Vent Variable Vent de SSE

Aujourd'hui
Haut(e) -- | Bas -- ° F
--% Risque de précip.
Hier
Haut(e) -- | Bas -- ° F
Precip. -- pouce
Pression 30.20 pouce
Visibilité 10.0 Miles terrestres
Nuages Nuageux 1400 ft
Point de rosée 54 ° F
Humidité 88%
Précipitations 0.00 pouce
Profondeur de la couche neigeuse Non disponible.
6:59 AM 4:50 PM
Lune gibbeuse croissante, 80% visible
METAR KSBP 100356Z AUTO 00000KT 10SM BKN014 16/14 A3020 RMK AO2 SLP225 T01560139
Pression 30.20 pouce
Visibilité 10.0 Miles terrestres
Nuages Nuageux 1400 ft
Point de rosée 54 ° F
Humidité 88%
Précipitations 0.00 pouce
Profondeur de la couche neigeuse Non disponible.
6:59 AM 4:50 PM
Lune gibbeuse croissante, 80% visible
METAR KSBP 100356Z AUTO 00000KT 10SM BKN014 16/14 A3020 RMK AO2 SLP225 T01560139

10-Day Weather Forecast

Almanac

Astronomie

Dec. 09, 2016 Lever Coucher
Temps réel
Crépuscule civil
Crépuscule nautique
Crépuscule astronomique
Lune
Durée de lumière visible
Longueur du jour
Tomorrow will be .
, % of the Moon is Illuminated

Extrêmes aujourd'hui

State Highs State Lows

Community

WunderPhotos

Upload Photos

1,956,529 Photos téléchargées !

WunderBlog® & News

Nearby

Qualité de l'air

  Qualité de l'air Indice de la qualité de l'air Polluant
Not available.

Épaisseur de neige

Station Depth Altitude

Activité sismique

Ville Distance Mag. Time & Date
Minimum magnitude displayed is 2.5.

Températures des eaux côtières

Lieu Température

Stations

Stations météo à proximité

Emplacement de la station Température Refroidissement éolien Point de rosée Humidité Vent Precip. Alt. Mise à jour Type
                   

Watches & Warnings

There are currently no watches in effect.